sensor_id;sensor_type;location;lat;lon;timestamp;P1;durP1;ratioP1;P2;durP2;ratioP2
3733;SDS011;1882;52.256;8.874;2023-07-29T00:01:02;4.43;;;3.20;;
3733;SDS011;1882;52.256;8.874;2023-07-29T00:03:29;7.17;;;3.43;;
3733;SDS011;1882;52.256;8.874;2023-07-29T00:05:58;3.70;;;3.30;;
3733;SDS011;1882;52.256;8.874;2023-07-29T00:08:25;3.83;;;3.43;;
3733;SDS011;1882;52.256;8.874;2023-07-29T00:10:52;3.60;;;3.10;;
3733;SDS011;1882;52.256;8.874;2023-07-29T00:13:19;5.77;;;3.57;;
3733;SDS011;1882;52.256;8.874;2023-07-29T00:15:47;4.00;;;3.60;;
3733;SDS011;1882;52.256;8.874;2023-07-29T00:18:14;3.47;;;3.17;;
3733;SDS011;1882;52.256;8.874;2023-07-29T00:20:42;3.97;;;3.30;;
3733;SDS011;1882;52.256;8.874;2023-07-29T00:23:08;4.70;;;3.20;;
3733;SDS011;1882;52.256;8.874;2023-07-29T00:25:35;3.50;;;3.20;;
3733;SDS011;1882;52.256;8.874;2023-07-29T00:28:02;3.67;;;3.37;;
3733;SDS011;1882;52.256;8.874;2023-07-29T00:30:29;8.33;;;3.53;;
3733;SDS011;1882;52.256;8.874;2023-07-29T00:32:57;3.60;;;3.30;;
3733;SDS011;1882;52.256;8.874;2023-07-29T00:35:24;4.20;;;3.13;;
3733;SDS011;1882;52.256;8.874;2023-07-29T00:37:51;4.67;;;3.53;;
3733;SDS011;1882;52.256;8.874;2023-07-29T00:40:21;6.97;;;3.00;;
3733;SDS011;1882;52.256;8.874;2023-07-29T00:42:49;4.67;;;3.60;;
3733;SDS011;1882;52.256;8.874;2023-07-29T00:45:16;5.57;;;3.27;;
3733;SDS011;1882;52.256;8.874;2023-07-29T00:47:43;5.23;;;3.30;;
3733;SDS011;1882;52.256;8.874;2023-07-29T00:50:11;4.30;;;3.50;;
3733;SDS011;1882;52.256;8.874;2023-07-29T00:52:38;6.17;;;3.10;;
3733;SDS011;1882;52.256;8.874;2023-07-29T00:55:05;6.33;;;3.30;;
3733;SDS011;1882;52.256;8.874;2023-07-29T00:57:33;7.27;;;3.40;;
3733;SDS011;1882;52.256;8.874;2023-07-29T01:00:00;5.10;;;3.07;;
3733;SDS011;1882;52.256;8.874;2023-07-29T01:02:27;3.90;;;3.50;;
3733;SDS011;1882;52.256;8.874;2023-07-29T01:04:56;3.50;;;3.10;;
3733;SDS011;1882;52.256;8.874;2023-07-29T01:15:24;3.93;;;3.23;;
3733;SDS011;1882;52.256;8.874;2023-07-29T01:17:54;4.23;;;3.60;;
3733;SDS011;1882;52.256;8.874;2023-07-29T01:20:23;7.00;;;3.47;;
3733;SDS011;1882;52.256;8.874;2023-07-29T01:22:51;4.77;;;3.50;;
3733;SDS011;1882;52.256;8.874;2023-07-29T01:25:18;6.00;;;3.80;;
3733;SDS011;1882;52.256;8.874;2023-07-29T01:27:50;3.80;;;3.17;;
3733;SDS011;1882;52.256;8.874;2023-07-29T01:30:22;3.57;;;3.27;;
3733;SDS011;1882;52.256;8.874;2023-07-29T01:33:16;3.77;;;3.00;;
3733;SDS011;1882;52.256;8.874;2023-07-29T01:36:02;5.70;;;3.40;;
3733;SDS011;1882;52.256;8.874;2023-07-29T01:38:32;7.00;;;3.33;;
3733;SDS011;1882;52.256;8.874;2023-07-29T01:41:01;3.90;;;3.20;;
3733;SDS011;1882;52.256;8.874;2023-07-29T01:43:31;3.93;;;3.53;;
3733;SDS011;1882;52.256;8.874;2023-07-29T01:45:58;5.17;;;3.30;;
3733;SDS011;1882;52.256;8.874;2023-07-29T01:48:25;4.40;;;3.20;;
3733;SDS011;1882;52.256;8.874;2023-07-29T01:50:52;3.17;;;2.87;;
3733;SDS011;1882;52.256;8.874;2023-07-29T01:53:20;4.97;;;3.23;;
3733;SDS011;1882;52.256;8.874;2023-07-29T01:55:46;3.80;;;3.00;;
3733;SDS011;1882;52.256;8.874;2023-07-29T01:58:14;3.50;;;3.20;;
3733;SDS011;1882;52.256;8.874;2023-07-29T02:00:45;3.50;;;3.20;;
3733;SDS011;1882;52.256;8.874;2023-07-29T02:03:12;3.53;;;3.20;;
3733;SDS011;1882;52.256;8.874;2023-07-29T02:05:39;3.60;;;3.30;;
3733;SDS011;1882;52.256;8.874;2023-07-29T02:08:06;3.83;;;3.53;;
3733;SDS011;1882;52.256;8.874;2023-07-29T02:10:33;6.37;;;3.43;;
3733;SDS011;1882;52.256;8.874;2023-07-29T02:12:59;6.80;;;3.40;;
3733;SDS011;1882;52.256;8.874;2023-07-29T02:15:26;3.50;;;3.20;;
3733;SDS011;1882;52.256;8.874;2023-07-29T02:17:54;4.73;;;3.80;;
3733;SDS011;1882;52.256;8.874;2023-07-29T02:20:21;3.90;;;3.60;;
3733;SDS011;1882;52.256;8.874;2023-07-29T02:22:49;5.73;;;3.23;;
3733;SDS011;1882;52.256;8.874;2023-07-29T02:25:16;8.40;;;3.70;;
3733;SDS011;1882;52.256;8.874;2023-07-29T02:27:42;5.27;;;3.57;;
3733;SDS011;1882;52.256;8.874;2023-07-29T02:30:09;7.00;;;3.50;;
3733;SDS011;1882;52.256;8.874;2023-07-29T02:32:37;5.50;;;3.17;;
3733;SDS011;1882;52.256;8.874;2023-07-29T02:35:03;5.80;;;3.37;;
3733;SDS011;1882;52.256;8.874;2023-07-29T02:37:31;8.27;;;4.00;;
3733;SDS011;1882;52.256;8.874;2023-07-29T02:39:58;3.67;;;3.37;;
3733;SDS011;1882;52.256;8.874;2023-07-29T02:42:25;8.10;;;4.13;;
3733;SDS011;1882;52.256;8.874;2023-07-29T02:44:52;3.80;;;3.50;;
3733;SDS011;1882;52.256;8.874;2023-07-29T02:47:21;5.17;;;3.50;;
3733;SDS011;1882;52.256;8.874;2023-07-29T02:49:48;4.37;;;3.20;;
3733;SDS011;1882;52.256;8.874;2023-07-29T02:52:15;4.17;;;3.53;;
3733;SDS011;1882;52.256;8.874;2023-07-29T02:54:41;3.93;;;3.27;;
3733;SDS011;1882;52.256;8.874;2023-07-29T02:57:08;4.47;;;3.37;;
3733;SDS011;1882;52.256;8.874;2023-07-29T02:59:35;3.97;;;3.57;;
3733;SDS011;1882;52.256;8.874;2023-07-29T03:02:02;7.20;;;3.57;;
3733;SDS011;1882;52.256;8.874;2023-07-29T03:04:29;4.67;;;3.43;;
3733;SDS011;1882;52.256;8.874;2023-07-29T03:07:02;3.60;;;3.20;;
3733;SDS011;1882;52.256;8.874;2023-07-29T03:09:29;4.43;;;3.63;;
3733;SDS011;1882;52.256;8.874;2023-07-29T03:12:03;6.03;;;3.70;;
3733;SDS011;1882;52.256;8.874;2023-07-29T03:14:30;4.67;;;3.70;;
3733;SDS011;1882;52.256;8.874;2023-07-29T03:16:57;4.20;;;3.80;;
3733;SDS011;1882;52.256;8.874;2023-07-29T03:19:26;4.10;;;3.70;;
3733;SDS011;1882;52.256;8.874;2023-07-29T03:21:53;5.00;;;4.10;;
3733;SDS011;1882;52.256;8.874;2023-07-29T03:24:20;4.00;;;3.50;;
3733;SDS011;1882;52.256;8.874;2023-07-29T03:26:50;5.77;;;3.57;;
3733;SDS011;1882;52.256;8.874;2023-07-29T03:29:17;4.43;;;3.80;;
3733;SDS011;1882;52.256;8.874;2023-07-29T03:31:44;6.60;;;3.60;;
3733;SDS011;1882;52.256;8.874;2023-07-29T03:34:13;3.60;;;3.30;;
3733;SDS011;1882;52.256;8.874;2023-07-29T03:36:44;4.37;;;3.60;;
3733;SDS011;1882;52.256;8.874;2023-07-29T03:39:14;5.97;;;3.30;;
3733;SDS011;1882;52.256;8.874;2023-07-29T03:41:43;4.10;;;3.70;;
3733;SDS011;1882;52.256;8.874;2023-07-29T03:44:10;3.87;;;3.47;;
3733;SDS011;1882;52.256;8.874;2023-07-29T03:46:40;4.00;;;3.70;;
3733;SDS011;1882;52.256;8.874;2023-07-29T03:49:08;3.77;;;3.47;;
3733;SDS011;1882;52.256;8.874;2023-07-29T03:51:35;4.07;;;3.70;;
3733;SDS011;1882;52.256;8.874;2023-07-29T03:54:02;4.00;;;3.60;;
3733;SDS011;1882;52.256;8.874;2023-07-29T03:56:29;4.00;;;3.60;;
3733;SDS011;1882;52.256;8.874;2023-07-29T03:59:02;5.90;;;3.57;;
3733;SDS011;1882;52.256;8.874;2023-07-29T04:01:30;3.57;;;3.27;;
3733;SDS011;1882;52.256;8.874;2023-07-29T04:03:57;3.70;;;3.40;;
3733;SDS011;1882;52.256;8.874;2023-07-29T04:06:24;5.43;;;3.90;;
3733;SDS011;1882;52.256;8.874;2023-07-29T04:08:51;4.53;;;3.27;;
3733;SDS011;1882;52.256;8.874;2023-07-29T04:11:18;10.40;;;3.70;;
3733;SDS011;1882;52.256;8.874;2023-07-29T04:13:45;3.50;;;3.20;;
3733;SDS011;1882;52.256;8.874;2023-07-29T04:16:15;3.50;;;3.20;;
3733;SDS011;1882;52.256;8.874;2023-07-29T04:18:43;4.07;;;3.20;;
3733;SDS011;1882;52.256;8.874;2023-07-29T04:21:09;3.67;;;3.37;;
3733;SDS011;1882;52.256;8.874;2023-07-29T04:23:38;6.77;;;3.30;;
3733;SDS011;1882;52.256;8.874;2023-07-29T04:26:08;5.90;;;3.00;;
3733;SDS011;1882;52.256;8.874;2023-07-29T04:28:41;3.20;;;3.00;;
3733;SDS011;1882;52.256;8.874;2023-07-29T04:31:09;3.80;;;3.40;;
3733;SDS011;1882;52.256;8.874;2023-07-29T04:33:42;5.73;;;3.27;;
3733;SDS011;1882;52.256;8.874;2023-07-29T04:36:12;7.50;;;3.27;;
3733;SDS011;1882;52.256;8.874;2023-07-29T04:38:43;3.30;;;3.00;;
3733;SDS011;1882;52.256;8.874;2023-07-29T04:41:09;5.80;;;3.40;;
3733;SDS011;1882;52.256;8.874;2023-07-29T04:43:37;4.90;;;3.00;;
3733;SDS011;1882;52.256;8.874;2023-07-29T04:46:12;3.57;;;2.90;;
3733;SDS011;1882;52.256;8.874;2023-07-29T04:48:39;3.13;;;2.90;;
3733;SDS011;1882;52.256;8.874;2023-07-29T04:51:06;3.40;;;3.10;;
3733;SDS011;1882;52.256;8.874;2023-07-29T04:53:33;2.90;;;2.70;;
3733;SDS011;1882;52.256;8.874;2023-07-29T04:56:02;3.20;;;2.87;;
3733;SDS011;1882;52.256;8.874;2023-07-29T04:58:29;4.03;;;3.23;;
3733;SDS011;1882;52.256;8.874;2023-07-29T05:00:58;3.50;;;3.20;;
3733;SDS011;1882;52.256;8.874;2023-07-29T05:03:25;3.30;;;3.10;;
3733;SDS011;1882;52.256;8.874;2023-07-29T05:05:52;3.23;;;2.93;;
3733;SDS011;1882;52.256;8.874;2023-07-29T05:08:22;2.93;;;2.73;;
3733;SDS011;1882;52.256;8.874;2023-07-29T05:10:54;5.37;;;2.80;;
3733;SDS011;1882;52.256;8.874;2023-07-29T05:13:21;3.37;;;3.07;;
3733;SDS011;1882;52.256;8.874;2023-07-29T05:15:48;2.97;;;2.77;;
3733;SDS011;1882;52.256;8.874;2023-07-29T05:18:16;3.40;;;3.10;;
3733;SDS011;1882;52.256;8.874;2023-07-29T05:20:46;4.00;;;3.27;;
3733;SDS011;1882;52.256;8.874;2023-07-29T05:23:14;3.50;;;3.20;;
3733;SDS011;1882;52.256;8.874;2023-07-29T05:25:41;3.37;;;3.07;;
3733;SDS011;1882;52.256;8.874;2023-07-29T05:28:17;2.67;;;2.50;;
3733;SDS011;1882;52.256;8.874;2023-07-29T05:30:44;3.30;;;3.00;;
3733;SDS011;1882;52.256;8.874;2023-07-29T05:33:11;3.73;;;3.07;;
3733;SDS011;1882;52.256;8.874;2023-07-29T05:35:38;4.10;;;2.90;;
3733;SDS011;1882;52.256;8.874;2023-07-29T05:38:06;3.47;;;3.17;;
3733;SDS011;1882;52.256;8.874;2023-07-29T05:40:37;2.93;;;2.73;;
3733;SDS011;1882;52.256;8.874;2023-07-29T05:43:04;3.10;;;2.90;;
3733;SDS011;1882;52.256;8.874;2023-07-29T05:45:31;6.50;;;3.17;;
3733;SDS011;1882;52.256;8.874;2023-07-29T05:47:59;3.23;;;2.93;;
3733;SDS011;1882;52.256;8.874;2023-07-29T05:50:33;3.60;;;3.23;;
3733;SDS011;1882;52.256;8.874;2023-07-29T05:53:03;3.90;;;2.93;;
3733;SDS011;1882;52.256;8.874;2023-07-29T05:55:30;3.53;;;3.27;;
3733;SDS011;1882;52.256;8.874;2023-07-29T05:57:56;2.93;;;2.73;;
3733;SDS011;1882;52.256;8.874;2023-07-29T06:00:24;3.87;;;3.37;;
3733;SDS011;1882;52.256;8.874;2023-07-29T06:02:51;3.47;;;3.10;;
3733;SDS011;1882;52.256;8.874;2023-07-29T06:05:20;4.03;;;3.40;;
3733;SDS011;1882;52.256;8.874;2023-07-29T06:07:47;8.03;;;2.90;;
3733;SDS011;1882;52.256;8.874;2023-07-29T06:10:15;4.00;;;3.23;;
3733;SDS011;1882;52.256;8.874;2023-07-29T06:12:45;4.90;;;3.67;;
3733;SDS011;1882;52.256;8.874;2023-07-29T06:15:12;3.30;;;3.10;;
3733;SDS011;1882;52.256;8.874;2023-07-29T06:17:40;3.37;;;3.17;;
3733;SDS011;1882;52.256;8.874;2023-07-29T06:20:07;3.80;;;3.27;;
3733;SDS011;1882;52.256;8.874;2023-07-29T06:22:37;5.00;;;3.13;;
3733;SDS011;1882;52.256;8.874;2023-07-29T06:25:04;3.57;;;2.87;;
3733;SDS011;1882;52.256;8.874;2023-07-29T06:27:31;4.60;;;3.40;;
3733;SDS011;1882;52.256;8.874;2023-07-29T06:29:58;10.53;;;3.43;;
3733;SDS011;1882;52.256;8.874;2023-07-29T06:32:24;6.17;;;3.77;;
3733;SDS011;1882;52.256;8.874;2023-07-29T06:37:25;16.83;;;4.10;;
3733;SDS011;1882;52.256;8.874;2023-07-29T06:39:52;3.47;;;3.20;;
3733;SDS011;1882;52.256;8.874;2023-07-29T06:42:19;3.37;;;3.07;;
3733;SDS011;1882;52.256;8.874;2023-07-29T06:44:53;27.83;;;5.90;;
3733;SDS011;1882;52.256;8.874;2023-07-29T06:47:20;3.50;;;3.20;;
3733;SDS011;1882;52.256;8.874;2023-07-29T06:49:47;4.00;;;2.90;;
3733;SDS011;1882;52.256;8.874;2023-07-29T06:52:14;3.53;;;3.13;;
3733;SDS011;1882;52.256;8.874;2023-07-29T06:54:50;4.43;;;3.03;;
3733;SDS011;1882;52.256;8.874;2023-07-29T06:57:17;3.67;;;3.23;;
3733;SDS011;1882;52.256;8.874;2023-07-29T06:59:44;3.93;;;3.63;;
3733;SDS011;1882;52.256;8.874;2023-07-29T07:02:10;4.20;;;3.40;;
3733;SDS011;1882;52.256;8.874;2023-07-29T07:04:40;5.50;;;3.60;;
3733;SDS011;1882;52.256;8.874;2023-07-29T07:07:07;4.73;;;4.20;;
3733;SDS011;1882;52.256;8.874;2023-07-29T07:09:34;7.37;;;4.60;;
3733;SDS011;1882;52.256;8.874;2023-07-29T07:12:01;5.27;;;4.77;;
3733;SDS011;1882;52.256;8.874;2023-07-29T07:14:36;79.17;;;10.87;;
3733;SDS011;1882;52.256;8.874;2023-07-29T07:17:03;6.10;;;5.20;;
3733;SDS011;1882;52.256;8.874;2023-07-29T07:19:33;18.73;;;6.77;;
3733;SDS011;1882;52.256;8.874;2023-07-29T07:22:00;7.30;;;5.63;;
3733;SDS011;1882;52.256;8.874;2023-07-29T07:24:30;6.20;;;5.60;;
3733;SDS011;1882;52.256;8.874;2023-07-29T07:26:57;7.03;;;5.30;;
3733;SDS011;1882;52.256;8.874;2023-07-29T07:29:26;8.27;;;6.70;;
3733;SDS011;1882;52.256;8.874;2023-07-29T07:31:53;11.37;;;7.47;;
3733;SDS011;1882;52.256;8.874;2023-07-29T07:34:30;14.40;;;6.70;;
3733;SDS011;1882;52.256;8.874;2023-07-29T07:37:03;7.40;;;6.43;;
3733;SDS011;1882;52.256;8.874;2023-07-29T07:39:33;11.27;;;6.80;;
3733;SDS011;1882;52.256;8.874;2023-07-29T07:42:00;8.77;;;6.90;;
3733;SDS011;1882;52.256;8.874;2023-07-29T07:44:27;8.93;;;7.13;;
3733;SDS011;1882;52.256;8.874;2023-07-29T07:47:04;8.57;;;7.67;;
3733;SDS011;1882;52.256;8.874;2023-07-29T07:49:36;8.43;;;6.90;;
3733;SDS011;1882;52.256;8.874;2023-07-29T07:52:03;10.30;;;9.03;;
3733;SDS011;1882;52.256;8.874;2023-07-29T07:54:36;8.43;;;7.53;;
3733;SDS011;1882;52.256;8.874;2023-07-29T07:57:05;20.33;;;9.20;;
3733;SDS011;1882;52.256;8.874;2023-07-29T07:59:33;12.73;;;8.47;;
3733;SDS011;1882;52.256;8.874;2023-07-29T08:02:03;11.50;;;8.77;;
3733;SDS011;1882;52.256;8.874;2023-07-29T08:04:32;10.73;;;8.20;;
3733;SDS011;1882;52.256;8.874;2023-07-29T08:07:01;10.47;;;8.40;;
3733;SDS011;1882;52.256;8.874;2023-07-29T08:09:37;11.87;;;8.80;;
3733;SDS011;1882;52.256;8.874;2023-07-29T08:12:04;11.83;;;9.00;;
3733;SDS011;1882;52.256;8.874;2023-07-29T08:14:30;12.00;;;9.33;;
3733;SDS011;1882;52.256;8.874;2023-07-29T08:17:08;13.47;;;9.67;;
3733;SDS011;1882;52.256;8.874;2023-07-29T08:19:35;11.83;;;9.27;;
3733;SDS011;1882;52.256;8.874;2023-07-29T08:22:04;13.70;;;9.67;;
3733;SDS011;1882;52.256;8.874;2023-07-29T08:24:41;12.90;;;9.30;;
3733;SDS011;1882;52.256;8.874;2023-07-29T08:27:07;14.20;;;9.50;;
3733;SDS011;1882;52.256;8.874;2023-07-29T08:29:35;9.83;;;8.13;;
3733;SDS011;1882;52.256;8.874;2023-07-29T08:32:02;9.87;;;8.20;;
3733;SDS011;1882;52.256;8.874;2023-07-29T08:34:36;11.37;;;8.13;;
3733;SDS011;1882;52.256;8.874;2023-07-29T08:37:03;8.17;;;7.37;;
3733;SDS011;1882;52.256;8.874;2023-07-29T08:39:32;9.97;;;7.50;;
3733;SDS011;1882;52.256;8.874;2023-07-29T08:42:07;8.00;;;7.20;;
3733;SDS011;1882;52.256;8.874;2023-07-29T08:44:40;7.57;;;6.47;;
3733;SDS011;1882;52.256;8.874;2023-07-29T08:47:07;6.97;;;6.27;;
3733;SDS011;1882;52.256;8.874;2023-07-29T08:49:43;6.60;;;6.00;;
3733;SDS011;1882;52.256;8.874;2023-07-29T08:52:11;6.30;;;5.70;;
3733;SDS011;1882;52.256;8.874;2023-07-29T08:54:38;7.70;;;5.47;;
3733;SDS011;1882;52.256;8.874;2023-07-29T08:57:08;6.07;;;5.03;;
3733;SDS011;1882;52.256;8.874;2023-07-29T08:59:34;6.30;;;5.20;;
3733;SDS011;1882;52.256;8.874;2023-07-29T09:02:04;5.13;;;4.63;;
3733;SDS011;1882;52.256;8.874;2023-07-29T09:04:30;5.00;;;4.60;;
3733;SDS011;1882;52.256;8.874;2023-07-29T09:07:00;6.90;;;5.13;;
3733;SDS011;1882;52.256;8.874;2023-07-29T09:09:28;4.70;;;4.20;;
3733;SDS011;1882;52.256;8.874;2023-07-29T09:11:55;4.40;;;4.00;;
3733;SDS011;1882;52.256;8.874;2023-07-29T09:14:23;6.70;;;4.00;;
3733;SDS011;1882;52.256;8.874;2023-07-29T09:16:50;4.07;;;3.77;;
3733;SDS011;1882;52.256;8.874;2023-07-29T09:19:17;8.07;;;3.50;;
3733;SDS011;1882;52.256;8.874;2023-07-29T09:21:45;5.07;;;3.70;;
3733;SDS011;1882;52.256;8.874;2023-07-29T09:24:15;4.70;;;3.93;;
3733;SDS011;1882;52.256;8.874;2023-07-29T09:26:48;9.40;;;4.20;;
3733;SDS011;1882;52.256;8.874;2023-07-29T09:29:16;4.30;;;3.20;;
3733;SDS011;1882;52.256;8.874;2023-07-29T09:31:48;9.33;;;3.30;;
3733;SDS011;1882;52.256;8.874;2023-07-29T09:34:18;2.80;;;2.60;;
3733;SDS011;1882;52.256;8.874;2023-07-29T09:36:45;2.73;;;2.53;;
3733;SDS011;1882;52.256;8.874;2023-07-29T09:39:12;5.57;;;2.40;;
3733;SDS011;1882;52.256;8.874;2023-07-29T09:41:46;2.47;;;2.27;;
3733;SDS011;1882;52.256;8.874;2023-07-29T09:44:17;2.70;;;2.50;;
3733;SDS011;1882;52.256;8.874;2023-07-29T09:46:45;11.67;;;2.60;;
3733;SDS011;1882;52.256;8.874;2023-07-29T09:49:12;5.80;;;2.60;;
3733;SDS011;1882;52.256;8.874;2023-07-29T09:51:39;4.50;;;2.43;;
3733;SDS011;1882;52.256;8.874;2023-07-29T09:54:07;2.97;;;1.90;;
3733;SDS011;1882;52.256;8.874;2023-07-29T09:56:34;2.57;;;2.07;;
3733;SDS011;1882;52.256;8.874;2023-07-29T09:59:06;2.10;;;2.00;;
3733;SDS011;1882;52.256;8.874;2023-07-29T10:01:32;1.97;;;1.87;;
3733;SDS011;1882;52.256;8.874;2023-07-29T10:04:09;19.47;;;3.73;;
3733;SDS011;1882;52.256;8.874;2023-07-29T10:06:39;5.10;;;2.57;;
3733;SDS011;1882;52.256;8.874;2023-07-29T10:09:15;4.77;;;2.47;;
3733;SDS011;1882;52.256;8.874;2023-07-29T10:11:42;3.97;;;2.07;;
3733;SDS011;1882;52.256;8.874;2023-07-29T10:14:09;11.63;;;2.53;;
3733;SDS011;1882;52.256;8.874;2023-07-29T10:16:36;4.87;;;2.10;;
3733;SDS011;1882;52.256;8.874;2023-07-29T10:19:12;1.80;;;1.70;;
3733;SDS011;1882;52.256;8.874;2023-07-29T10:21:41;1.73;;;1.63;;
3733;SDS011;1882;52.256;8.874;2023-07-29T10:24:11;20.17;;;3.90;;
3733;SDS011;1882;52.256;8.874;2023-07-29T10:26:43;2.50;;;1.43;;
3733;SDS011;1882;52.256;8.874;2023-07-29T10:29:12;3.10;;;1.67;;
3733;SDS011;1882;52.256;8.874;2023-07-29T10:31:43;2.97;;;1.67;;
3733;SDS011;1882;52.256;8.874;2023-07-29T10:34:10;5.10;;;1.77;;
3733;SDS011;1882;52.256;8.874;2023-07-29T10:36:39;2.40;;;1.50;;
3733;SDS011;1882;52.256;8.874;2023-07-29T10:39:09;2.50;;;1.67;;
3733;SDS011;1882;52.256;8.874;2023-07-29T10:47:22;3.90;;;1.47;;
3733;SDS011;1882;52.256;8.874;2023-07-29T10:49:51;1.50;;;1.40;;
3733;SDS011;1882;52.256;8.874;2023-07-29T10:54:55;3.63;;;1.60;;
3733;SDS011;1882;52.256;8.874;2023-07-29T10:57:34;6.70;;;1.93;;
3733;SDS011;1882;52.256;8.874;2023-07-29T11:00:06;1.67;;;1.40;;
3733;SDS011;1882;52.256;8.874;2023-07-29T11:02:34;1.70;;;1.60;;
3733;SDS011;1882;52.256;8.874;2023-07-29T11:05:06;7.00;;;2.60;;
3733;SDS011;1882;52.256;8.874;2023-07-29T11:07:45;2.17;;;1.50;;
3733;SDS011;1882;52.256;8.874;2023-07-29T11:10:12;2.90;;;1.33;;
3733;SDS011;1882;52.256;8.874;2023-07-29T11:12:46;1.43;;;1.33;;
3733;SDS011;1882;52.256;8.874;2023-07-29T11:18:01;1.70;;;1.60;;
3733;SDS011;1882;52.256;8.874;2023-07-29T11:20:29;10.60;;;2.20;;
3733;SDS011;1882;52.256;8.874;2023-07-29T11:22:59;1.53;;;1.43;;
3733;SDS011;1882;52.256;8.874;2023-07-29T11:25:27;38.30;;;2.80;;
3733;SDS011;1882;52.256;8.874;2023-07-29T11:27:56;1.37;;;1.27;;
3733;SDS011;1882;52.256;8.874;2023-07-29T11:30:24;4.67;;;1.53;;
3733;SDS011;1882;52.256;8.874;2023-07-29T11:33:00;51.47;;;5.80;;
3733;SDS011;1882;52.256;8.874;2023-07-29T11:35:27;9.83;;;2.20;;
3733;SDS011;1882;52.256;8.874;2023-07-29T11:37:54;3.30;;;1.47;;
3733;SDS011;1882;52.256;8.874;2023-07-29T11:40:27;38.13;;;4.43;;
3733;SDS011;1882;52.256;8.874;2023-07-29T11:42:53;1.50;;;1.40;;
3733;SDS011;1882;52.256;8.874;2023-07-29T11:45:23;4.07;;;1.80;;
3733;SDS011;1882;52.256;8.874;2023-07-29T11:48:04;16.33;;;2.40;;
3733;SDS011;1882;52.256;8.874;2023-07-29T11:50:31;2.17;;;1.50;;
3733;SDS011;1882;52.256;8.874;2023-07-29T11:53:07;1.33;;;1.23;;
3733;SDS011;1882;52.256;8.874;2023-07-29T11:55:33;1.50;;;1.40;;
3733;SDS011;1882;52.256;8.874;2023-07-29T11:58:01;3.20;;;1.27;;
3733;SDS011;1882;52.256;8.874;2023-07-29T12:00:36;2.00;;;1.30;;
3733;SDS011;1882;52.256;8.874;2023-07-29T12:03:04;1.50;;;1.40;;
3733;SDS011;1882;52.256;8.874;2023-07-29T12:05:31;1.43;;;1.33;;
3733;SDS011;1882;52.256;8.874;2023-07-29T12:07:58;1.40;;;1.30;;
3733;SDS011;1882;52.256;8.874;2023-07-29T12:10:32;51.90;;;4.43;;
3733;SDS011;1882;52.256;8.874;2023-07-29T12:12:58;5.70;;;1.83;;
3733;SDS011;1882;52.256;8.874;2023-07-29T12:15:25;1.70;;;1.60;;
3733;SDS011;1882;52.256;8.874;2023-07-29T12:17:56;2.17;;;1.30;;
3733;SDS011;1882;52.256;8.874;2023-07-29T12:20:24;1.93;;;1.23;;
3733;SDS011;1882;52.256;8.874;2023-07-29T12:22:54;2.13;;;1.37;;
3733;SDS011;1882;52.256;8.874;2023-07-29T12:25:22;1.50;;;1.40;;
3733;SDS011;1882;52.256;8.874;2023-07-29T12:27:57;2.10;;;1.43;;
3733;SDS011;1882;52.256;8.874;2023-07-29T12:30:29;1.87;;;1.30;;
3733;SDS011;1882;52.256;8.874;2023-07-29T12:32:55;1.60;;;1.50;;
3733;SDS011;1882;52.256;8.874;2023-07-29T12:35:25;1.40;;;1.30;;
3733;SDS011;1882;52.256;8.874;2023-07-29T12:38:00;1.57;;;1.47;;
3733;SDS011;1882;52.256;8.874;2023-07-29T12:40:27;2.33;;;1.40;;
3733;SDS011;1882;52.256;8.874;2023-07-29T12:42:56;5.13;;;1.50;;
3733;SDS011;1882;52.256;8.874;2023-07-29T12:45:23;1.60;;;1.43;;
3733;SDS011;1882;52.256;8.874;2023-07-29T12:47:53;1.60;;;1.50;;
3733;SDS011;1882;52.256;8.874;2023-07-29T12:50:20;1.57;;;1.47;;
3733;SDS011;1882;52.256;8.874;2023-07-29T12:52:54;3.90;;;1.67;;
3733;SDS011;1882;52.256;8.874;2023-07-29T12:55:21;1.60;;;1.50;;
3733;SDS011;1882;52.256;8.874;2023-07-29T12:57:57;1.70;;;1.60;;
3733;SDS011;1882;52.256;8.874;2023-07-29T13:00:25;1.50;;;1.40;;
3733;SDS011;1882;52.256;8.874;2023-07-29T13:02:52;1.60;;;1.40;;
3733;SDS011;1882;52.256;8.874;2023-07-29T13:05:19;1.60;;;1.50;;
3733;SDS011;1882;52.256;8.874;2023-07-29T13:08:06;1.50;;;1.40;;
3733;SDS011;1882;52.256;8.874;2023-07-29T13:10:40;1.80;;;1.70;;
3733;SDS011;1882;52.256;8.874;2023-07-29T13:13:07;3.43;;;1.87;;
3733;SDS011;1882;52.256;8.874;2023-07-29T13:15:33;3.80;;;1.50;;
3733;SDS011;1882;52.256;8.874;2023-07-29T13:18:00;2.07;;;1.60;;
3733;SDS011;1882;52.256;8.874;2023-07-29T13:20:27;1.77;;;1.67;;
3733;SDS011;1882;52.256;8.874;2023-07-29T13:22:56;2.27;;;1.60;;
3733;SDS011;1882;52.256;8.874;2023-07-29T13:25:23;2.13;;;1.70;;
3733;SDS011;1882;52.256;8.874;2023-07-29T13:27:59;3.20;;;1.90;;
3733;SDS011;1882;52.256;8.874;2023-07-29T13:30:30;1.80;;;1.70;;
3733;SDS011;1882;52.256;8.874;2023-07-29T13:32:57;1.90;;;1.80;;
3733;SDS011;1882;52.256;8.874;2023-07-29T13:35:26;2.07;;;1.87;;
3733;SDS011;1882;52.256;8.874;2023-07-29T13:37:56;2.07;;;1.87;;
3733;SDS011;1882;52.256;8.874;2023-07-29T13:40:25;1.90;;;1.63;;
3733;SDS011;1882;52.256;8.874;2023-07-29T13:43:10;2.07;;;1.90;;
3733;SDS011;1882;52.256;8.874;2023-07-29T13:45:37;2.80;;;2.00;;
3733;SDS011;1882;52.256;8.874;2023-07-29T13:48:03;15.83;;;4.30;;
3733;SDS011;1882;52.256;8.874;2023-07-29T13:50:30;6.37;;;2.87;;
3733;SDS011;1882;52.256;8.874;2023-07-29T13:52:57;2.00;;;1.60;;
3733;SDS011;1882;52.256;8.874;2023-07-29T13:55:24;3.40;;;1.67;;
3733;SDS011;1882;52.256;8.874;2023-07-29T13:57:52;1.93;;;1.60;;
3733;SDS011;1882;52.256;8.874;2023-07-29T14:00:22;2.47;;;1.83;;
3733;SDS011;1882;52.256;8.874;2023-07-29T14:02:50;2.00;;;1.60;;
3733;SDS011;1882;52.256;8.874;2023-07-29T14:05:19;1.90;;;1.80;;
3733;SDS011;1882;52.256;8.874;2023-07-29T14:07:48;3.93;;;1.60;;
3733;SDS011;1882;52.256;8.874;2023-07-29T14:10:15;2.20;;;2.00;;
3733;SDS011;1882;52.256;8.874;2023-07-29T14:12:42;2.00;;;1.80;;
3733;SDS011;1882;52.256;8.874;2023-07-29T14:15:08;1.90;;;1.80;;
3733;SDS011;1882;52.256;8.874;2023-07-29T14:17:37;2.10;;;1.50;;
3733;SDS011;1882;52.256;8.874;2023-07-29T14:20:04;1.60;;;1.50;;
3733;SDS011;1882;52.256;8.874;2023-07-29T14:22:32;1.60;;;1.50;;
3733;SDS011;1882;52.256;8.874;2023-07-29T14:24:59;2.03;;;1.90;;
3733;SDS011;1882;52.256;8.874;2023-07-29T14:27:29;2.00;;;1.90;;
3733;SDS011;1882;52.256;8.874;2023-07-29T14:29:56;1.87;;;1.77;;
3733;SDS011;1882;52.256;8.874;2023-07-29T14:32:23;2.50;;;1.70;;
3733;SDS011;1882;52.256;8.874;2023-07-29T14:34:51;1.70;;;1.60;;
3733;SDS011;1882;52.256;8.874;2023-07-29T14:37:18;2.00;;;1.90;;
3733;SDS011;1882;52.256;8.874;2023-07-29T14:39:45;1.70;;;1.60;;
3733;SDS011;1882;52.256;8.874;2023-07-29T14:42:11;2.20;;;1.93;;
3733;SDS011;1882;52.256;8.874;2023-07-29T14:44:39;2.00;;;1.90;;
3733;SDS011;1882;52.256;8.874;2023-07-29T14:47:07;1.90;;;1.80;;
3733;SDS011;1882;52.256;8.874;2023-07-29T14:49:36;2.07;;;1.80;;
3733;SDS011;1882;52.256;8.874;2023-07-29T14:52:05;2.03;;;1.80;;
3733;SDS011;1882;52.256;8.874;2023-07-29T14:54:33;2.00;;;1.90;;
3733;SDS011;1882;52.256;8.874;2023-07-29T14:57:02;2.20;;;2.00;;
3733;SDS011;1882;52.256;8.874;2023-07-29T14:59:35;2.10;;;2.00;;
3733;SDS011;1882;52.256;8.874;2023-07-29T15:02:10;2.17;;;2.00;;
3733;SDS011;1882;52.256;8.874;2023-07-29T15:04:36;1.83;;;1.73;;
3733;SDS011;1882;52.256;8.874;2023-07-29T15:07:06;2.80;;;2.10;;
3733;SDS011;1882;52.256;8.874;2023-07-29T15:09:33;2.90;;;1.90;;
3733;SDS011;1882;52.256;8.874;2023-07-29T15:12:07;2.50;;;2.17;;
3733;SDS011;1882;52.256;8.874;2023-07-29T15:14:35;2.20;;;2.00;;
3733;SDS011;1882;52.256;8.874;2023-07-29T15:17:02;3.00;;;2.07;;
3733;SDS011;1882;52.256;8.874;2023-07-29T15:19:37;3.30;;;2.33;;
3733;SDS011;1882;52.256;8.874;2023-07-29T15:22:06;2.33;;;2.13;;
3733;SDS011;1882;52.256;8.874;2023-07-29T15:24:36;2.30;;;2.10;;
3733;SDS011;1882;52.256;8.874;2023-07-29T15:27:05;2.23;;;2.03;;
3733;SDS011;1882;52.256;8.874;2023-07-29T15:29:32;2.50;;;2.00;;
3733;SDS011;1882;52.256;8.874;2023-07-29T15:32:07;2.27;;;2.07;;
3733;SDS011;1882;52.256;8.874;2023-07-29T15:34:36;2.40;;;2.20;;
3733;SDS011;1882;52.256;8.874;2023-07-29T15:37:03;3.70;;;2.00;;
3733;SDS011;1882;52.256;8.874;2023-07-29T15:39:38;2.90;;;2.20;;
3733;SDS011;1882;52.256;8.874;2023-07-29T15:42:08;3.03;;;2.10;;
3733;SDS011;1882;52.256;8.874;2023-07-29T15:44:37;3.70;;;2.20;;
3733;SDS011;1882;52.256;8.874;2023-07-29T15:47:13;2.20;;;2.00;;